createdAt,value
2023-02-19T00:01:35.231Z,93877.20
2023-02-19T00:04:02.822Z,93880.20
2023-02-19T00:06:30.366Z,93884.20
2023-02-19T00:08:57.939Z,93891.60
2023-02-19T00:11:25.539Z,93895.20
2023-02-19T00:13:53.200Z,93907.60
2023-02-19T00:16:20.693Z,93911.40
2023-02-19T00:18:48.263Z,93923.00
2023-02-19T00:21:15.786Z,93925.40
2023-02-19T00:23:43.264Z,93935.20
2023-02-19T00:26:18.250Z,93936.80
2023-02-19T00:28:46.582Z,93932.20
2023-02-19T00:31:14.485Z,93935.40
2023-02-19T00:33:42.223Z,93928.80
2023-02-19T00:36:09.778Z,93930.20
2023-02-19T00:38:37.746Z,93926.80
2023-02-19T00:41:19.087Z,93933.60
2023-02-19T00:43:46.794Z,93934.60
2023-02-19T00:46:14.332Z,93930.00
2023-02-19T00:48:43.122Z,93936.80
2023-02-19T00:51:11.027Z,93933.20
2023-02-19T00:53:38.969Z,93934.20
2023-02-19T00:56:06.755Z,93927.60
2023-02-19T00:58:34.622Z,93925.80
2023-02-19T01:01:02.168Z,93920.00
2023-02-19T01:03:29.741Z,93929.00
2023-02-19T01:05:57.407Z,93921.80
2023-02-19T01:08:25.021Z,93917.80
2023-02-19T01:10:52.538Z,93915.00
2023-02-19T01:13:20.345Z,93906.80
2023-02-19T01:15:47.863Z,93915.60
2023-02-19T01:18:15.439Z,93911.20
2023-02-19T01:20:42.946Z,93912.00
2023-02-19T01:23:10.441Z,93911.00
2023-02-19T01:25:37.899Z,93912.80
2023-02-19T01:28:05.410Z,93907.80
2023-02-19T01:30:33.015Z,93901.20
2023-02-19T01:33:00.570Z,93900.40
2023-02-19T01:35:28.301Z,93901.60
2023-02-19T01:37:55.783Z,93898.40
2023-02-19T01:40:23.288Z,93890.60
2023-02-19T01:42:50.774Z,93887.80
2023-02-19T01:45:18.707Z,93889.40
2023-02-19T01:47:46.172Z,93888.00
2023-02-19T01:50:13.669Z,93892.60
2023-02-19T01:52:41.170Z,93891.20
2023-02-19T01:55:08.683Z,93886.00
2023-02-19T01:57:36.305Z,93887.80
2023-02-19T02:00:04.163Z,93879.60
2023-02-19T02:02:31.699Z,93866.60
2023-02-19T02:05:00.238Z,93874.80
2023-02-19T02:07:46.473Z,93873.20
2023-02-19T02:10:20.301Z,93862.00
2023-02-19T02:12:47.794Z,93870.20
2023-02-19T02:15:16.242Z,93872.40
2023-02-19T02:17:43.985Z,93863.60
2023-02-19T02:20:11.469Z,93850.60
2023-02-19T02:22:39.061Z,93843.20
2023-02-19T02:25:06.655Z,93830.80
2023-02-19T02:27:34.222Z,93826.20
2023-02-19T02:30:01.811Z,93818.80
2023-02-19T02:32:29.562Z,93816.80
2023-02-19T02:34:57.196Z,93814.80
2023-02-19T02:37:24.831Z,93809.40
2023-02-19T02:39:52.556Z,93809.20
2023-02-19T02:42:29.361Z,93808.60
2023-02-19T02:45:15.766Z,93800.00
2023-02-19T02:47:44.837Z,93792.00
2023-02-19T02:50:12.449Z,93789.20
2023-02-19T02:52:58.953Z,93790.40
2023-02-19T02:55:26.485Z,93786.00
2023-02-19T02:57:54.074Z,93782.40
2023-02-19T03:00:21.893Z,93785.80
2023-02-19T03:02:49.403Z,93781.20
2023-02-19T03:05:36.124Z,93780.60
2023-02-19T03:08:03.616Z,93778.40
2023-02-19T03:10:31.072Z,93781.40
2023-02-19T03:13:17.704Z,93775.00
2023-02-19T03:16:04.102Z,93767.80
2023-02-19T03:18:50.673Z,93766.20
2023-02-19T03:21:18.193Z,93772.20
2023-02-19T03:24:04.397Z,93770.00
2023-02-19T03:26:31.958Z,93771.20
2023-02-19T03:29:18.251Z,93770.60
2023-02-19T03:31:45.921Z,93770.40
2023-02-19T03:34:14.431Z,93770.60
2023-02-19T03:36:42.333Z,93774.60
2023-02-19T03:39:11.064Z,93774.80
2023-02-19T03:41:38.620Z,93779.80
2023-02-19T03:44:06.235Z,93779.80
2023-02-19T03:46:33.729Z,93781.60
2023-02-19T03:49:01.283Z,93781.40
2023-02-19T03:51:28.929Z,93781.40
2023-02-19T03:53:56.453Z,93777.80
2023-02-19T03:56:24.229Z,93778.60
2023-02-19T03:58:51.853Z,93780.00
2023-02-19T04:01:19.510Z,93786.40
2023-02-19T04:03:47.007Z,93785.20
2023-02-19T04:06:14.632Z,93776.20
2023-02-19T04:08:42.089Z,93783.20
2023-02-19T04:11:09.945Z,93779.40
2023-02-19T04:13:37.708Z,93779.40
2023-02-19T04:16:05.278Z,93782.80
2023-02-19T04:18:32.801Z,93775.20
2023-02-19T04:21:00.442Z,93778.20
2023-02-19T04:23:27.928Z,93775.60
2023-02-19T04:25:55.530Z,93770.40
2023-02-19T04:28:23.031Z,93770.80
2023-02-19T04:30:50.609Z,93769.40
2023-02-19T04:33:18.233Z,93765.80
2023-02-19T04:35:45.791Z,93756.00
2023-02-19T04:38:14.456Z,93752.20
2023-02-19T04:40:44.922Z,93746.80
2023-02-19T04:43:12.489Z,93748.00
2023-02-19T04:45:40.014Z,93745.80
2023-02-19T04:48:07.612Z,93746.60
2023-02-19T04:50:35.211Z,93739.80
2023-02-19T04:53:02.720Z,93731.60
2023-02-19T04:55:30.256Z,93737.20
2023-02-19T04:57:57.751Z,93737.60
2023-02-19T05:00:25.419Z,93732.80
2023-02-19T05:02:53.103Z,93739.00
2023-02-19T05:05:20.669Z,93737.00
2023-02-19T05:07:48.175Z,93729.60
2023-02-19T05:10:15.656Z,93737.40
2023-02-19T05:12:43.174Z,93725.40
2023-02-19T05:15:10.721Z,93727.00
2023-02-19T05:17:38.253Z,93724.00
2023-02-19T05:20:05.826Z,93719.60
2023-02-19T05:22:33.298Z,93715.80
2023-02-19T05:25:01.246Z,93706.40
2023-02-19T05:27:28.762Z,93695.80
2023-02-19T05:29:56.229Z,93693.00
2023-02-19T05:32:23.844Z,93680.00
2023-02-19T05:34:51.564Z,93671.80
2023-02-19T05:37:19.191Z,93672.00
2023-02-19T05:39:46.751Z,93678.20
2023-02-19T05:42:14.753Z,93675.00
2023-02-19T05:44:42.291Z,93679.60
2023-02-19T05:47:09.958Z,93680.40
2023-02-19T05:49:37.675Z,93686.00
2023-02-19T05:52:05.278Z,93691.60
2023-02-19T05:54:32.887Z,93695.00
2023-02-19T05:57:00.694Z,93693.00
2023-02-19T05:59:31.005Z,93694.20
2023-02-19T06:01:58.712Z,93700.40
2023-02-19T06:04:26.370Z,93697.80
2023-02-19T06:06:54.363Z,93691.60
2023-02-19T06:09:21.895Z,93689.00
2023-02-19T06:11:49.475Z,93690.60
2023-02-19T06:14:17.027Z,93694.60
2023-02-19T06:16:44.538Z,93703.60
2023-02-19T06:19:12.096Z,93708.00
2023-02-19T06:21:39.704Z,93710.80
2023-02-19T06:24:07.302Z,93717.60
2023-02-19T06:26:34.968Z,93717.00
2023-02-19T06:29:02.460Z,93716.00
2023-02-19T06:31:30.133Z,93717.20
2023-02-19T06:33:58.134Z,93709.80
2023-02-19T06:36:25.754Z,93709.20
2023-02-19T06:38:53.391Z,93701.00
2023-02-19T06:41:21.059Z,93707.20
2023-02-19T06:43:48.691Z,93701.20
2023-02-19T06:46:16.324Z,93697.60
2023-02-19T06:48:43.917Z,93694.40
2023-02-19T06:51:11.733Z,93693.20
2023-02-19T06:53:39.371Z,93697.20
2023-02-19T06:56:06.959Z,93705.80
2023-02-19T06:58:34.448Z,93706.60
2023-02-19T07:01:01.965Z,93704.40
2023-02-19T07:03:29.809Z,93703.60
2023-02-19T07:05:58.373Z,93703.40
2023-02-19T07:08:27.937Z,93700.60
2023-02-19T07:10:56.969Z,93702.20
2023-02-19T07:13:24.691Z,93699.60
2023-02-19T07:15:52.507Z,93695.60
2023-02-19T07:18:20.232Z,93692.40
2023-02-19T07:20:47.740Z,93690.80
2023-02-19T07:23:17.363Z,93689.80
2023-02-19T07:25:44.953Z,93695.00
2023-02-19T07:28:12.459Z,93697.00
2023-02-19T07:30:39.979Z,93695.40
2023-02-19T07:33:10.099Z,93697.80
2023-02-19T07:35:38.072Z,93697.60
2023-02-19T07:38:05.698Z,93697.00
2023-02-19T07:40:33.243Z,93692.40
2023-02-19T07:43:00.899Z,93695.60
2023-02-19T07:45:28.510Z,93691.80
2023-02-19T07:47:57.572Z,93698.20
2023-02-19T07:50:25.074Z,93688.60
2023-02-19T07:52:52.748Z,93690.00
2023-02-19T07:55:20.436Z,93689.60
2023-02-19T07:57:48.021Z,93689.00
2023-02-19T08:00:15.637Z,93694.60
2023-02-19T08:03:01.699Z,93698.40
2023-02-19T08:05:30.471Z,93694.20
2023-02-19T08:07:58.182Z,93696.60
2023-02-19T08:10:44.600Z,93689.40
2023-02-19T08:13:25.275Z,93695.40
2023-02-19T08:15:53.008Z,93692.20
2023-02-19T08:18:20.592Z,93686.40
2023-02-19T08:20:48.589Z,93688.80
2023-02-19T08:23:16.313Z,93687.20
2023-02-19T08:25:45.987Z,93684.80
2023-02-19T08:28:13.490Z,93679.60
2023-02-19T08:30:41.282Z,93679.80
2023-02-19T08:33:08.869Z,93679.80
2023-02-19T08:35:37.046Z,93680.00
2023-02-19T08:38:04.655Z,93681.00
2023-02-19T08:40:32.222Z,93681.40
2023-02-19T08:42:59.805Z,93686.80
2023-02-19T08:45:27.390Z,93691.80
2023-02-19T08:47:54.899Z,93689.00
2023-02-19T08:50:22.449Z,93693.00
2023-02-19T08:52:50.035Z,93690.60
2023-02-19T08:55:17.949Z,93694.60
2023-02-19T08:57:45.667Z,93695.00
2023-02-19T09:00:13.241Z,93693.80
2023-02-19T09:02:40.838Z,93687.80
2023-02-19T09:05:08.487Z,93687.40
2023-02-19T09:07:35.999Z,93686.60
2023-02-19T09:10:03.784Z,93686.60
2023-02-19T09:12:31.339Z,93684.20
2023-02-19T09:14:58.981Z,93685.40
2023-02-19T09:17:26.450Z,93679.60
2023-02-19T09:19:54.173Z,93676.40
2023-02-19T09:22:21.815Z,93679.60
2023-02-19T09:24:49.573Z,93683.60
2023-02-19T09:27:17.142Z,93677.60
2023-02-19T09:29:44.668Z,93672.00
2023-02-19T09:32:12.252Z,93668.60
2023-02-19T09:34:39.843Z,93664.80
2023-02-19T09:37:07.835Z,93662.20
2023-02-19T09:39:35.449Z,93665.00
2023-02-19T09:42:02.910Z,93660.20
2023-02-19T09:44:30.946Z,93660.60
2023-02-19T09:46:58.508Z,93655.00
2023-02-19T09:49:26.121Z,93656.80
2023-02-19T09:51:53.847Z,93655.80
2023-02-19T09:54:21.821Z,93652.20
2023-02-19T09:56:52.403Z,93648.40
2023-02-19T09:59:37.066Z,93650.20
2023-02-19T10:02:04.656Z,93654.00
2023-02-19T10:04:32.199Z,93647.60
2023-02-19T10:07:03.560Z,93647.20
2023-02-19T10:09:31.191Z,93639.00
2023-02-19T10:11:59.064Z,93647.80
2023-02-19T10:14:26.643Z,93645.00
2023-02-19T10:16:54.289Z,93645.00
2023-02-19T10:19:21.799Z,93643.40
2023-02-19T10:21:49.536Z,93645.40
2023-02-19T10:24:17.086Z,93649.20
2023-02-19T10:26:44.621Z,93646.60
2023-02-19T10:29:12.428Z,93634.60
2023-02-19T10:31:40.039Z,93639.20
2023-02-19T10:34:07.936Z,93640.80
2023-02-19T10:36:35.827Z,93638.00
2023-02-19T10:39:03.489Z,93640.80
2023-02-19T10:41:31.062Z,93640.80
2023-02-19T10:43:58.640Z,93638.40
2023-02-19T10:46:27.495Z,93633.40
2023-02-19T10:48:55.173Z,93632.40
2023-02-19T10:51:23.032Z,93634.60
2023-02-19T10:53:50.543Z,93639.60
2023-02-19T10:56:18.167Z,93644.80
2023-02-19T10:58:47.415Z,93646.40
2023-02-19T11:01:15.123Z,93643.40
2023-02-19T11:03:42.738Z,93650.60
2023-02-19T11:06:10.626Z,93647.20
2023-02-19T11:08:38.259Z,93651.80
2023-02-19T11:11:06.006Z,93655.00
2023-02-19T11:13:37.929Z,93652.00
2023-02-19T11:16:05.605Z,93653.60
2023-02-19T11:18:33.414Z,93652.40
2023-02-19T11:21:00.981Z,93651.00
2023-02-19T11:23:28.853Z,93650.40
2023-02-19T11:25:57.394Z,93651.80
2023-02-19T11:28:25.313Z,93655.20
2023-02-19T11:30:52.946Z,93653.40
2023-02-19T11:33:20.438Z,93658.20
2023-02-19T11:35:48.306Z,93657.80
2023-02-19T11:38:15.810Z,93663.80
2023-02-19T11:40:43.482Z,93658.40
2023-02-19T11:43:11.105Z,93667.40
2023-02-19T11:45:38.878Z,93669.20
2023-02-19T11:48:06.368Z,93669.40
2023-02-19T11:50:33.979Z,93675.40
2023-02-19T11:53:01.678Z,93675.80
2023-02-19T11:55:29.208Z,93685.60
2023-02-19T11:57:56.921Z,93687.80
2023-02-19T12:00:24.991Z,93694.80
2023-02-19T12:02:54.201Z,93700.80
2023-02-19T12:05:23.075Z,93708.20
2023-02-19T12:07:50.669Z,93711.60
2023-02-19T12:10:18.197Z,93717.20
2023-02-19T12:12:45.989Z,93721.40
2023-02-19T12:15:13.731Z,93725.80
2023-02-19T12:17:41.331Z,93725.60
2023-02-19T12:20:09.769Z,93722.40
2023-02-19T12:22:38.566Z,93731.00
2023-02-19T12:25:06.107Z,93733.60
2023-02-19T12:27:33.862Z,93735.00
2023-02-19T12:30:01.696Z,93743.00
2023-02-19T12:32:29.322Z,93742.60
2023-02-19T12:34:56.956Z,93752.00
2023-02-19T12:37:24.613Z,93754.00
2023-02-19T12:39:52.103Z,93759.60
2023-02-19T12:42:19.756Z,93760.20
2023-02-19T12:44:47.519Z,93764.20
2023-02-19T12:47:15.049Z,93763.80
2023-02-19T12:49:42.566Z,93767.00
2023-02-19T12:52:10.329Z,93772.40
2023-02-19T12:54:38.169Z,93774.40
2023-02-19T12:57:06.026Z,93775.00
2023-02-19T12:59:33.537Z,93777.80
2023-02-19T13:02:01.125Z,93779.40
2023-02-19T13:04:28.777Z,93773.80
2023-02-19T13:06:56.236Z,93780.00
2023-02-19T13:09:23.677Z,93780.80
2023-02-19T13:11:51.297Z,93779.20
2023-02-19T13:14:18.910Z,93787.60
2023-02-19T13:16:46.639Z,93784.00
2023-02-19T13:19:15.274Z,93782.20
2023-02-19T13:22:01.575Z,93787.20
2023-02-19T13:24:29.167Z,93785.20
2023-02-19T13:26:56.714Z,93787.80
2023-02-19T13:29:24.233Z,93789.40
2023-02-19T13:31:51.887Z,93789.60
2023-02-19T13:34:19.616Z,93797.00
2023-02-19T13:36:48.775Z,93803.00
2023-02-19T13:39:16.462Z,93803.00
2023-02-19T13:41:43.952Z,93803.40
2023-02-19T13:44:11.471Z,93798.80
2023-02-19T13:46:39.043Z,93803.80
2023-02-19T13:49:06.523Z,93798.80
2023-02-19T13:51:34.043Z,93802.80
2023-02-19T13:54:01.906Z,93801.60
2023-02-19T13:56:29.374Z,93808.20
2023-02-19T13:58:57.144Z,93814.80
2023-02-19T14:01:24.770Z,93812.80
2023-02-19T14:03:52.394Z,93820.00
2023-02-19T14:06:19.948Z,93816.40
2023-02-19T14:08:48.301Z,93829.60
2023-02-19T14:11:16.269Z,93825.60
2023-02-19T14:13:43.761Z,93843.00
2023-02-19T14:16:11.487Z,93845.80
2023-02-19T14:18:39.454Z,93840.60
2023-02-19T14:21:06.987Z,93856.00
2023-02-19T14:23:34.674Z,93854.40
2023-02-19T14:26:04.336Z,93858.00
2023-02-19T14:28:33.524Z,93865.20
2023-02-19T14:31:01.238Z,93873.40
2023-02-19T14:33:28.901Z,93872.40
2023-02-19T14:35:56.719Z,93881.40
2023-02-19T14:38:24.601Z,93885.60
2023-02-19T14:40:53.252Z,93888.20
2023-02-19T14:43:20.832Z,93902.00
2023-02-19T14:45:48.372Z,93903.20
2023-02-19T14:48:15.932Z,93908.00
2023-02-19T14:50:43.632Z,93907.20
2023-02-19T14:53:11.266Z,93906.60
2023-02-19T14:55:38.720Z,93912.60
2023-02-19T14:58:06.188Z,93916.60
2023-02-19T15:00:33.917Z,93921.00
2023-02-19T15:03:02.735Z,93924.20
2023-02-19T15:05:30.368Z,93933.40
2023-02-19T15:07:58.002Z,93938.60
2023-02-19T15:10:25.645Z,93951.40
2023-02-19T15:12:53.247Z,93955.40
2023-02-19T15:15:20.906Z,93969.60
2023-02-19T15:17:48.464Z,93976.40
2023-02-19T15:20:16.415Z,93981.80
2023-02-19T15:22:44.843Z,93974.80
2023-02-19T15:25:12.610Z,93983.60
2023-02-19T15:27:40.397Z,93997.40
2023-02-19T15:30:08.323Z,93997.80
2023-02-19T15:32:36.134Z,94007.40
2023-02-19T15:35:03.829Z,94005.60
2023-02-19T15:37:31.423Z,94012.40
2023-02-19T15:39:58.905Z,94026.80
2023-02-19T15:42:26.480Z,94026.60
2023-02-19T15:44:54.170Z,94029.60
2023-02-19T15:47:21.916Z,94047.60
2023-02-19T15:49:49.725Z,94043.00
2023-02-19T15:52:17.316Z,94048.20
2023-02-19T15:54:45.046Z,94054.60
2023-02-19T15:57:13.965Z,94058.80
2023-02-19T15:59:41.858Z,94058.40
2023-02-19T16:02:09.340Z,94067.20
2023-02-19T16:04:37.104Z,94073.20
2023-02-19T16:07:04.785Z,94077.40
2023-02-19T16:09:32.712Z,94086.40
2023-02-19T16:12:01.229Z,94086.00
2023-02-19T16:14:31.901Z,94085.80
2023-02-19T16:16:59.923Z,94083.60
2023-02-19T16:19:28.548Z,94095.80
2023-02-19T16:21:56.351Z,94104.80
2023-02-19T16:24:24.009Z,94108.40
2023-02-19T16:26:51.958Z,94115.20
2023-02-19T16:29:19.697Z,94126.60
2023-02-19T16:31:47.325Z,94122.80
2023-02-19T16:34:14.915Z,94148.60
2023-02-19T16:36:43.638Z,94150.80
2023-02-19T16:39:12.985Z,94160.40
2023-02-19T16:41:40.453Z,94164.20
2023-02-19T16:44:08.072Z,94166.80
2023-02-19T16:46:35.764Z,94173.60
2023-02-19T16:49:03.448Z,94178.80
2023-02-19T16:51:31.062Z,94181.80
2023-02-19T16:53:58.835Z,94193.80
2023-02-19T16:56:26.315Z,94195.40
2023-02-19T16:58:54.054Z,94203.40
2023-02-19T17:01:21.584Z,94205.20
2023-02-19T17:03:52.234Z,94208.80
2023-02-19T17:06:20.036Z,94212.20
2023-02-19T17:08:47.543Z,94213.40
2023-02-19T17:11:15.024Z,94223.60
2023-02-19T17:13:42.551Z,94229.20
2023-02-19T17:16:11.003Z,94233.80
2023-02-19T17:18:38.538Z,94236.60
2023-02-19T17:21:06.436Z,94239.20
2023-02-19T17:23:34.257Z,94243.00
2023-02-19T17:26:01.816Z,94237.00
2023-02-19T17:28:29.412Z,94245.80
2023-02-19T17:30:56.876Z,94250.80
2023-02-19T17:33:24.502Z,94255.60
2023-02-19T17:35:52.098Z,94257.00
2023-02-19T17:38:19.720Z,94257.60
2023-02-19T17:40:48.796Z,94255.60
2023-02-19T17:43:16.477Z,94259.80
2023-02-19T17:45:44.075Z,94258.00
2023-02-19T17:48:11.671Z,94254.00
2023-02-19T17:50:39.383Z,94272.00
2023-02-19T17:53:07.120Z,94276.40
2023-02-19T17:55:34.737Z,94273.20
2023-02-19T17:58:02.455Z,94278.40
2023-02-19T18:00:31.643Z,94281.60
2023-02-19T18:02:59.207Z,94290.40
2023-02-19T18:05:27.137Z,94289.00
2023-02-19T18:07:54.636Z,94292.60
2023-02-19T18:10:23.364Z,94295.20
2023-02-19T18:12:50.886Z,94305.40
2023-02-19T18:15:18.392Z,94307.60
2023-02-19T18:17:46.826Z,94316.60
2023-02-19T18:20:14.716Z,94324.60
2023-02-19T18:22:43.295Z,94326.20
2023-02-19T18:25:11.247Z,94329.40
2023-02-19T18:27:39.036Z,94331.60
2023-02-19T18:30:06.572Z,94348.80
2023-02-19T18:32:34.114Z,94348.80
2023-02-19T18:35:02.000Z,94357.80
2023-02-19T18:37:31.330Z,94372.80
2023-02-19T18:39:59.213Z,94378.80
2023-02-19T18:42:27.064Z,94384.80
2023-02-19T18:44:54.682Z,94383.80
2023-02-19T18:47:22.459Z,94382.20
2023-02-19T18:49:50.025Z,94391.00
2023-02-19T18:52:20.307Z,94393.20
2023-02-19T18:54:48.379Z,94397.80
2023-02-19T18:57:15.985Z,94396.80
2023-02-19T18:59:43.564Z,94397.40
2023-02-19T19:02:11.300Z,94405.80
2023-02-19T19:04:39.008Z,94406.00
2023-02-19T19:07:06.513Z,94412.60
2023-02-19T19:09:35.553Z,94414.40
2023-02-19T19:12:03.120Z,94421.40
2023-02-19T19:14:30.688Z,94424.20
2023-02-19T19:16:58.164Z,94423.20
2023-02-19T19:19:25.733Z,94425.80
2023-02-19T19:21:53.515Z,94421.00
2023-02-19T19:24:21.131Z,94423.60
2023-02-19T19:26:48.846Z,94423.40
2023-02-19T19:29:17.241Z,94420.40
2023-02-19T19:31:44.811Z,94421.40
2023-02-19T19:34:12.513Z,94428.60
2023-02-19T19:36:40.143Z,94424.60
2023-02-19T19:39:08.240Z,94425.20
2023-02-19T19:41:35.883Z,94422.40
2023-02-19T19:44:03.688Z,94423.00
2023-02-19T19:46:31.438Z,94430.20
2023-02-19T19:48:59.123Z,94434.40
2023-02-19T19:51:27.361Z,94437.00
2023-02-19T19:53:55.075Z,94438.60
2023-02-19T19:56:23.060Z,94443.40
2023-02-19T19:58:50.599Z,94444.40
2023-02-19T20:01:21.288Z,94441.20
2023-02-19T20:03:49.296Z,94442.40
2023-02-19T20:06:17.079Z,94444.40
2023-02-19T20:08:44.619Z,94446.00
2023-02-19T20:11:12.696Z,94451.80
2023-02-19T20:13:40.394Z,94452.20
2023-02-19T20:16:11.099Z,94452.40
2023-02-19T20:18:38.726Z,94449.80
2023-02-19T20:21:06.197Z,94444.60
2023-02-19T20:23:33.915Z,94444.20
2023-02-19T20:26:01.473Z,94443.00
2023-02-19T20:28:29.233Z,94448.20
2023-02-19T20:30:57.611Z,94457.00
2023-02-19T20:33:25.393Z,94456.80
2023-02-19T20:35:52.994Z,94464.60
2023-02-19T20:38:20.594Z,94470.40
2023-02-19T20:40:48.176Z,94472.80
2023-02-19T20:43:15.651Z,94475.40
2023-02-19T20:45:45.907Z,94477.20
2023-02-19T20:48:13.589Z,94477.80
2023-02-19T20:50:41.116Z,94476.20
2023-02-19T20:53:08.758Z,94479.80
2023-02-19T20:55:36.442Z,94484.40
2023-02-19T20:58:03.938Z,94490.80
2023-02-19T21:00:31.419Z,94482.40
2023-02-19T21:02:59.212Z,94486.80
2023-02-19T21:05:27.148Z,94492.00
2023-02-19T21:07:55.338Z,94491.00
2023-02-19T21:10:23.299Z,94496.20
2023-02-19T21:12:52.348Z,94502.60
2023-02-19T21:15:20.259Z,94506.60
2023-02-19T21:17:48.089Z,94513.20
2023-02-19T21:20:17.862Z,94522.00
2023-02-19T21:22:45.459Z,94523.80
2023-02-19T21:25:12.979Z,94531.80
2023-02-19T21:27:40.504Z,94529.40
2023-02-19T21:30:08.147Z,94540.80
2023-02-19T21:32:35.733Z,94549.60
2023-02-19T21:35:03.219Z,94553.60
2023-02-19T21:37:30.696Z,94556.40
2023-02-19T21:40:00.481Z,94558.40
2023-02-19T21:42:28.293Z,94561.40
2023-02-19T21:44:55.762Z,94564.40
2023-02-19T21:47:23.320Z,94566.20
2023-02-19T21:49:51.055Z,94574.40
2023-02-19T21:52:18.592Z,94576.40
2023-02-19T21:54:46.335Z,94570.60
2023-02-19T21:57:13.827Z,94569.00
2023-02-19T21:59:41.404Z,94579.60
2023-02-19T22:02:08.957Z,94580.60
2023-02-19T22:04:36.467Z,94583.40
2023-02-19T22:07:03.962Z,94585.60
2023-02-19T22:09:31.477Z,94585.80
2023-02-19T22:11:58.968Z,94586.60
2023-02-19T22:14:26.495Z,94583.00
2023-02-19T22:16:54.099Z,94588.20
2023-02-19T22:19:21.649Z,94587.60
2023-02-19T22:21:49.179Z,94589.80
2023-02-19T22:24:17.572Z,94592.00
2023-02-19T22:26:45.653Z,94598.60
2023-02-19T22:29:13.300Z,94610.60
2023-02-19T22:31:41.160Z,94618.40
2023-02-19T22:34:09.117Z,94615.20
2023-02-19T22:36:40.307Z,94617.20
2023-02-19T22:39:08.116Z,94614.20
2023-02-19T22:41:36.004Z,94608.60
2023-02-19T22:44:03.526Z,94605.80
2023-02-19T22:46:31.266Z,94605.00
2023-02-19T22:48:58.808Z,94608.00
2023-02-19T22:51:26.341Z,94610.00
2023-02-19T22:53:54.083Z,94613.40
2023-02-19T22:56:22.355Z,94612.40
2023-02-19T22:58:49.880Z,94613.80
2023-02-19T23:01:17.447Z,94613.00
2023-02-19T23:03:45.023Z,94612.20
2023-02-19T23:06:12.738Z,94624.20
2023-02-19T23:08:42.987Z,94631.60
2023-02-19T23:11:10.644Z,94632.40
2023-02-19T23:13:38.163Z,94637.60
2023-02-19T23:16:06.480Z,94634.80
2023-02-19T23:18:34.110Z,94631.00
2023-02-19T23:21:01.607Z,94629.60
2023-02-19T23:23:31.448Z,94630.80
2023-02-19T23:25:58.910Z,94632.60
2023-02-19T23:28:26.461Z,94634.40
2023-02-19T23:30:54.354Z,94639.00
2023-02-19T23:33:22.080Z,94636.00
2023-02-19T23:35:49.611Z,94636.40
2023-02-19T23:38:17.141Z,94642.20
2023-02-19T23:40:45.356Z,94645.20
2023-02-19T23:43:13.220Z,94651.80
2023-02-19T23:45:40.857Z,94651.00
2023-02-19T23:48:08.440Z,94651.80
2023-02-19T23:50:36.045Z,94651.60
2023-02-19T23:53:03.558Z,94652.60
2023-02-19T23:55:31.199Z,94656.60
2023-02-19T23:57:58.732Z,94656.60
